createdAt,value
2019-04-11T00:01:45.211Z,12.30
2019-04-11T00:03:49.585Z,12.87
2019-04-11T00:05:57.292Z,13.20
2019-04-11T00:08:05.980Z,13.13
2019-04-11T00:10:14.503Z,12.73
2019-04-11T00:12:22.209Z,11.67
2019-04-11T00:14:29.722Z,11.60
2019-04-11T00:16:37.409Z,12.77
2019-04-11T00:18:45.046Z,12.37
2019-04-11T00:20:52.834Z,12.53
2019-04-11T00:23:00.361Z,12.43
2019-04-11T00:25:09.421Z,12.43
2019-04-11T00:27:17.201Z,12.87
2019-04-11T00:29:24.716Z,13.53
2019-04-11T00:31:32.699Z,13.63
2019-04-11T00:33:40.468Z,12.30
2019-04-11T00:35:48.086Z,14.13
2019-04-11T00:37:55.604Z,15.00
2019-04-11T00:40:03.891Z,13.70
2019-04-11T00:42:12.420Z,14.33
2019-04-11T00:44:20.913Z,15.37
2019-04-11T00:46:28.683Z,14.17
2019-04-11T00:48:37.614Z,14.63
2019-04-11T00:50:45.457Z,13.97
2019-04-11T00:52:53.723Z,13.93
2019-04-11T00:55:01.340Z,13.90
2019-04-11T00:57:08.998Z,12.90
2019-04-11T00:59:16.522Z,13.27
2019-04-11T01:01:24.046Z,13.23
2019-04-11T01:03:31.529Z,12.60
2019-04-11T01:05:39.425Z,15.37
2019-04-11T01:07:47.211Z,13.27
2019-04-11T01:09:54.866Z,12.87
2019-04-11T01:12:02.691Z,13.40
2019-04-11T01:14:10.301Z,12.03
2019-04-11T01:16:43.031Z,11.73
2019-04-11T01:18:50.571Z,11.60
2019-04-11T01:20:58.035Z,12.47
2019-04-11T01:23:06.769Z,12.33
2019-04-11T01:25:14.751Z,13.23
2019-04-11T01:27:23.614Z,12.23
2019-04-11T01:29:31.452Z,12.20
2019-04-11T01:31:39.899Z,12.67
2019-04-11T01:33:48.376Z,12.80
2019-04-11T01:35:55.877Z,12.70
2019-04-11T01:38:04.055Z,12.40
2019-04-11T01:40:11.834Z,13.33
2019-04-11T01:42:19.602Z,13.10
2019-04-11T01:44:28.313Z,12.67
2019-04-11T01:46:36.134Z,12.20
2019-04-11T01:48:52.057Z,12.17
2019-04-11T01:50:59.722Z,11.77
2019-04-11T01:53:07.394Z,11.63
2019-04-11T01:55:14.991Z,12.50
2019-04-11T01:57:22.454Z,11.87
2019-04-11T01:59:31.173Z,11.50
2019-04-11T02:01:49.406Z,11.80
2019-04-11T02:04:03.690Z,12.13
2019-04-11T02:06:11.820Z,11.13
2019-04-11T02:08:19.588Z,11.30
2019-04-11T02:10:28.594Z,11.60
2019-04-11T02:12:37.349Z,10.37
2019-04-11T02:14:45.903Z,11.10
2019-04-11T02:16:53.705Z,11.00
2019-04-11T02:19:01.667Z,11.27
2019-04-11T02:21:09.435Z,11.17
2019-04-11T02:23:21.550Z,10.30
2019-04-11T02:25:48.971Z,10.30
2019-04-11T02:27:58.101Z,11.10
2019-04-11T02:30:08.592Z,11.23
2019-04-11T02:32:18.259Z,10.60
2019-04-11T02:34:25.442Z,11.07
2019-04-11T02:36:34.199Z,10.40
2019-04-11T02:38:42.180Z,11.60
2019-04-11T02:40:50.695Z,10.83
2019-04-11T02:42:59.400Z,11.67
2019-04-11T02:45:22.472Z,10.97
2019-04-11T02:47:24.078Z,10.93
2019-04-11T02:49:27.796Z,11.17
2019-04-11T02:51:36.798Z,11.03
2019-04-11T02:53:45.102Z,11.13
2019-04-11T02:55:54.296Z,11.63
2019-04-11T02:58:04.015Z,12.33
2019-04-11T03:00:13.082Z,11.00
2019-04-11T03:02:21.470Z,11.00
2019-04-11T03:04:30.950Z,10.93
2019-04-11T03:06:39.643Z,11.83
2019-04-11T03:08:48.964Z,11.17
2019-04-11T03:10:57.724Z,11.30
2019-04-11T03:13:05.588Z,10.67
2019-04-11T03:15:28.726Z,11.43
2019-04-11T03:17:28.694Z,11.07
2019-04-11T03:19:43.962Z,11.53
2019-04-11T03:21:44.431Z,11.43
2019-04-11T03:23:51.372Z,11.50
2019-04-11T03:26:00.637Z,12.93
2019-04-11T03:28:13.735Z,12.97
2019-04-11T03:30:24.753Z,12.20
2019-04-11T03:35:35.004Z,11.70
2019-04-11T03:39:15.167Z,11.33
2019-04-11T03:41:25.291Z,11.93
2019-04-11T03:43:28.154Z,12.20
2019-04-11T03:45:43.521Z,12.37
2019-04-11T03:47:44.846Z,13.13
2019-04-11T03:49:51.070Z,12.63
2019-04-11T03:51:53.152Z,13.57
2019-04-11T03:54:02.186Z,12.13
2019-04-11T03:56:09.904Z,12.23
2019-04-11T03:58:19.661Z,12.10
2019-04-11T04:00:33.559Z,11.87
2019-04-11T04:02:37.241Z,12.00
2019-04-11T04:04:46.573Z,11.43
2019-04-11T04:06:55.209Z,11.00
2019-04-11T04:09:04.252Z,10.83
2019-04-11T04:11:27.053Z,11.93
2019-04-11T04:13:36.613Z,11.87
2019-04-11T04:16:11.984Z,11.87
2019-04-11T04:18:29.908Z,11.63
2019-04-11T04:20:59.699Z,11.30
2019-04-11T04:23:20.883Z,11.17
2019-04-11T04:25:29.116Z,11.53
2019-04-11T04:27:36.659Z,10.93
2019-04-11T04:29:49.013Z,11.03
2019-04-11T04:31:54.989Z,11.57
2019-04-11T04:34:03.874Z,11.30
2019-04-11T04:36:13.847Z,11.23
2019-04-11T04:38:21.200Z,11.23
2019-04-11T04:40:49.537Z,10.77
2019-04-11T04:42:47.710Z,11.83
2019-04-11T04:44:50.986Z,11.60
2019-04-11T04:47:13.589Z,11.20
2019-04-11T04:49:11.187Z,11.27
2019-04-11T04:51:20.566Z,11.27
2019-04-11T04:53:28.489Z,12.13
2019-04-11T04:55:36.804Z,11.13
2019-04-11T04:57:44.985Z,11.17
2019-04-11T04:59:53.205Z,11.43
2019-04-11T05:02:01.765Z,11.40
2019-04-11T05:04:11.339Z,11.10
2019-04-11T05:06:20.493Z,11.37
2019-04-11T05:08:28.226Z,11.17
2019-04-11T05:10:36.006Z,11.50
2019-04-11T05:12:43.918Z,10.80
2019-04-11T05:14:51.992Z,11.57
2019-04-11T05:17:00.419Z,11.47
2019-04-11T05:19:08.532Z,11.67
2019-04-11T05:21:17.058Z,12.03
2019-04-11T05:23:25.496Z,11.60
2019-04-11T05:25:32.986Z,11.03
2019-04-11T05:27:40.395Z,11.70
2019-04-11T05:29:47.777Z,11.17
2019-04-11T05:31:55.250Z,12.03
2019-04-11T05:34:03.502Z,11.47
2019-04-11T05:36:12.222Z,10.47
2019-04-11T05:38:20.731Z,10.27
2019-04-11T05:40:28.446Z,11.33
2019-04-11T05:42:35.865Z,11.03
2019-04-11T05:44:43.298Z,11.20
2019-04-11T05:46:56.189Z,11.03
2019-04-11T05:49:09.277Z,11.17
2019-04-11T05:51:21.190Z,11.37
2019-04-11T05:53:25.889Z,10.87
2019-04-11T05:55:41.416Z,10.67
2019-04-11T05:57:48.723Z,10.83
2019-04-11T05:59:57.669Z,11.00
2019-04-11T06:02:13.013Z,11.07
2019-04-11T06:04:28.602Z,9.87
2019-04-11T06:06:58.906Z,10.30
2019-04-11T06:09:13.440Z,9.50
2019-04-11T06:11:28.660Z,10.67
2019-04-11T06:13:53.482Z,9.77
2019-04-11T06:16:02.843Z,10.87
2019-04-11T06:18:25.957Z,10.87
2019-04-11T06:20:49.915Z,10.33
2019-04-11T06:23:08.164Z,10.33
2019-04-11T06:25:28.028Z,10.80
2019-04-11T06:27:57.916Z,9.70
2019-04-11T06:30:28.541Z,10.47
2019-04-11T06:32:54.363Z,10.73
2019-04-11T06:35:06.580Z,10.27
2019-04-11T06:37:41.635Z,10.17
2019-04-11T06:40:02.567Z,9.60
2019-04-11T06:42:40.614Z,10.20
2019-04-11T06:45:01.966Z,10.03
2019-04-11T06:47:27.160Z,10.20
2019-04-11T06:49:53.010Z,9.33
2019-04-11T06:52:02.473Z,10.90
2019-04-11T06:54:23.315Z,10.63
2019-04-11T06:56:41.149Z,9.60
2019-04-11T06:58:53.627Z,10.43
2019-04-11T07:01:05.495Z,9.90
2019-04-11T07:03:22.254Z,10.17
2019-04-11T07:05:24.722Z,9.93
2019-04-11T07:07:35.680Z,9.50
2019-04-11T07:09:49.254Z,9.83
2019-04-11T07:12:01.415Z,10.33
2019-04-11T07:14:26.970Z,9.30
2019-04-11T07:16:36.180Z,9.73
2019-04-11T07:18:53.312Z,9.87
2019-04-11T07:21:03.113Z,9.53
2019-04-11T07:23:28.511Z,9.00
2019-04-11T07:25:55.897Z,9.33
2019-04-11T07:28:11.014Z,9.97
2019-04-11T07:30:37.499Z,9.17
2019-04-11T07:32:45.180Z,9.33
2019-04-11T07:35:10.962Z,8.67
2019-04-11T07:37:32.663Z,8.50
2019-04-11T07:39:58.541Z,8.47
2019-04-11T07:42:23.904Z,8.53
2019-04-11T07:44:32.279Z,8.80
2019-04-11T07:46:55.935Z,7.60
2019-04-11T07:49:08.141Z,7.77
2019-04-11T07:51:34.744Z,8.17
2019-04-11T07:53:45.969Z,7.67
2019-04-11T07:55:55.433Z,8.40
2019-04-11T07:58:21.695Z,7.50
2019-04-11T08:00:52.882Z,7.83
2019-04-11T08:03:25.555Z,7.90
2019-04-11T08:06:03.810Z,7.47
2019-04-11T08:08:32.851Z,6.90
2019-04-11T08:10:45.749Z,6.83
2019-04-11T08:12:54.067Z,7.20
2019-04-11T08:15:38.491Z,7.93
2019-04-11T08:17:46.700Z,6.67
2019-04-11T08:20:25.652Z,7.20
2019-04-11T08:22:39.219Z,7.43
2019-04-11T08:24:56.498Z,7.07
2019-04-11T08:27:32.070Z,7.70
2019-04-11T08:29:39.606Z,7.60
2019-04-11T08:32:12.034Z,7.23
2019-04-11T08:34:20.681Z,8.10
2019-04-11T08:36:50.865Z,8.03
2019-04-11T08:38:58.604Z,7.57
2019-04-11T08:41:13.512Z,7.93
2019-04-11T08:43:27.049Z,7.10
2019-04-11T08:45:35.308Z,6.90
2019-04-11T08:47:49.215Z,7.30
2019-04-11T08:49:58.438Z,6.87
2019-04-11T08:52:11.850Z,6.53
2019-04-11T08:54:53.513Z,7.23
2019-04-11T08:57:01.316Z,6.67
2019-04-11T08:59:35.658Z,6.87
2019-04-11T09:01:44.316Z,6.47
2019-04-11T09:04:15.623Z,6.83
2019-04-11T09:06:30.506Z,6.90
2019-04-11T09:08:59.802Z,6.80
2019-04-11T09:11:26.105Z,6.63
2019-04-11T09:13:56.068Z,6.80
2019-04-11T09:16:21.576Z,6.37
2019-04-11T09:18:30.240Z,6.37
2019-04-11T09:21:00.123Z,6.50
2019-04-11T09:23:13.482Z,6.40
2019-04-11T09:25:43.470Z,6.57
2019-04-11T09:28:11.265Z,6.47
2019-04-11T09:30:28.612Z,6.53
2019-04-11T09:33:01.383Z,6.73
2019-04-11T09:35:18.535Z,6.20
2019-04-11T09:37:36.022Z,6.17
2019-04-11T09:40:15.337Z,6.20
2019-04-11T09:42:43.005Z,6.10
2019-04-11T09:44:59.377Z,5.93
2019-04-11T09:47:38.391Z,6.97
2019-04-11T09:49:51.589Z,6.57
2019-04-11T09:52:07.336Z,6.40
2019-04-11T09:54:26.187Z,6.53
2019-04-11T09:56:56.015Z,6.53
2019-04-11T09:59:09.023Z,6.70
2019-04-11T10:01:35.444Z,6.97
2019-04-11T10:03:45.033Z,7.07
2019-04-11T10:06:26.422Z,6.13
2019-04-11T10:08:59.740Z,6.90
2019-04-11T10:11:32.654Z,6.53
2019-04-11T10:14:01.785Z,6.60
2019-04-11T10:16:31.807Z,6.27
2019-04-11T10:19:01.290Z,6.10
2019-04-11T10:21:09.018Z,6.43
2019-04-11T10:23:45.126Z,6.33
2019-04-11T10:25:56.401Z,6.07
2019-04-11T10:28:21.819Z,6.00
2019-04-11T10:30:48.256Z,6.73
2019-04-11T10:32:59.419Z,6.50
2019-04-11T10:35:24.377Z,6.40
2019-04-11T10:37:32.351Z,5.83
2019-04-11T10:40:05.886Z,6.50
2019-04-11T10:42:14.864Z,6.60
2019-04-11T10:44:28.436Z,6.10
2019-04-11T10:46:49.509Z,6.50
2019-04-11T10:49:05.394Z,6.47
2019-04-11T10:51:30.361Z,6.33
2019-04-11T10:53:39.436Z,7.10
2019-04-11T10:56:09.031Z,6.90
2019-04-11T10:58:22.546Z,6.57
2019-04-11T11:00:40.396Z,6.57
2019-04-11T11:03:09.616Z,6.87
2019-04-11T11:05:19.140Z,6.43
2019-04-11T11:07:30.779Z,6.57
2019-04-11T11:10:03.518Z,6.63
2019-04-11T11:12:25.248Z,6.67
2019-04-11T11:14:55.382Z,6.13
2019-04-11T11:17:10.774Z,6.30
2019-04-11T11:19:50.175Z,6.47
2019-04-11T11:21:45.165Z,6.87
2019-04-11T11:24:11.736Z,6.90
2019-04-11T11:26:26.249Z,7.13
2019-04-11T11:28:36.753Z,6.20
2019-04-11T11:31:03.198Z,6.63
2019-04-11T11:33:11.036Z,6.37
2019-04-11T11:35:50.047Z,6.73
2019-04-11T11:38:06.015Z,7.07
2019-04-11T11:40:32.049Z,6.70
2019-04-11T11:42:58.786Z,6.90
2019-04-11T11:45:14.411Z,6.40
2019-04-11T11:47:41.448Z,6.47
2019-04-11T11:49:57.339Z,5.87
2019-04-11T11:52:35.042Z,6.93
2019-04-11T11:54:46.678Z,7.10
2019-04-11T11:56:56.439Z,7.20
2019-04-11T11:59:25.121Z,7.27
2019-04-11T12:01:32.928Z,7.30
2019-04-11T12:04:01.288Z,6.87
2019-04-11T12:06:09.541Z,6.80
2019-04-11T12:08:54.257Z,6.47
2019-04-11T12:11:05.951Z,6.53
2019-04-11T12:13:32.656Z,8.10
2019-04-11T12:16:03.579Z,5.57
2019-04-11T12:18:49.529Z,7.20
2019-04-11T12:20:59.326Z,6.93
2019-04-11T12:23:15.082Z,6.70
2019-04-11T12:25:25.411Z,6.43
2019-04-11T12:28:00.773Z,6.50
2019-04-11T12:30:30.542Z,6.00
2019-04-11T12:32:37.075Z,6.27
2019-04-11T12:35:00.354Z,6.23
2019-04-11T12:37:12.549Z,5.83
2019-04-11T12:39:47.885Z,5.93
2019-04-11T12:41:57.983Z,5.90
2019-04-11T12:44:23.324Z,6.10
2019-04-11T12:46:48.404Z,5.70
2019-04-11T12:49:00.317Z,6.30
2019-04-11T12:51:39.002Z,5.40
2019-04-11T12:53:48.178Z,5.70
2019-04-11T12:56:20.403Z,5.93
2019-04-11T12:58:30.593Z,6.27
2019-04-11T13:00:53.248Z,5.47
2019-04-11T13:03:18.992Z,5.83
2019-04-11T13:05:26.606Z,5.83
2019-04-11T13:08:05.100Z,5.70
2019-04-11T13:10:25.640Z,6.00
2019-04-11T13:12:54.753Z,6.10
2019-04-11T13:15:27.337Z,5.70
2019-04-11T13:17:37.531Z,6.13
2019-04-11T13:20:04.903Z,6.73
2019-04-11T13:22:17.999Z,5.83
2019-04-11T13:24:53.394Z,5.87
2019-04-11T13:27:12.801Z,5.37
2019-04-11T13:29:45.011Z,5.77
2019-04-11T13:32:10.221Z,5.90
2019-04-11T13:34:17.799Z,7.10
2019-04-11T13:36:50.070Z,6.10
2019-04-11T13:38:57.609Z,6.60
2019-04-11T13:41:42.237Z,6.00
2019-04-11T13:44:06.883Z,6.17
2019-04-11T13:46:25.352Z,5.77
2019-04-11T13:49:01.241Z,5.53
2019-04-11T13:51:14.203Z,6.67
2019-04-11T13:53:39.432Z,6.30
2019-04-11T13:55:46.823Z,6.30
2019-04-11T13:58:13.479Z,5.93
2019-04-11T14:00:41.794Z,6.60
2019-04-11T14:03:11.010Z,6.40
2019-04-11T14:05:18.406Z,6.67
2019-04-11T14:07:26.001Z,7.23
2019-04-11T14:09:41.169Z,6.57
2019-04-11T14:11:50.312Z,7.00
2019-04-11T14:13:57.794Z,6.53
2019-04-11T14:16:10.154Z,7.00
2019-04-11T14:18:29.645Z,6.93
2019-04-11T14:20:49.331Z,6.50
2019-04-11T14:23:18.438Z,5.60
2019-04-11T14:25:53.657Z,7.00
2019-04-11T14:28:02.158Z,6.43
2019-04-11T14:30:35.089Z,6.37
2019-04-11T14:32:45.624Z,7.03
2019-04-11T14:35:10.649Z,6.77
2019-04-11T14:37:38.393Z,6.53
2019-04-11T14:39:46.912Z,6.30
2019-04-11T14:42:16.884Z,7.50
2019-04-11T14:44:24.841Z,6.80
2019-04-11T14:47:09.405Z,6.80
2019-04-11T14:49:18.108Z,6.87
2019-04-11T14:51:36.498Z,7.03
2019-04-11T14:54:18.271Z,6.83
2019-04-11T14:56:27.023Z,6.60
2019-04-11T14:58:53.856Z,6.77
2019-04-11T15:01:01.988Z,6.73
2019-04-11T15:03:34.435Z,7.03
2019-04-11T15:05:46.363Z,7.17
2019-04-11T15:07:54.094Z,7.70
2019-04-11T15:10:19.093Z,7.07
2019-04-11T15:12:27.896Z,7.67
2019-04-11T15:14:52.816Z,6.60
2019-04-11T15:17:19.038Z,7.50
2019-04-11T15:19:26.602Z,6.90
2019-04-11T15:22:11.190Z,6.57
2019-04-11T15:24:19.903Z,7.63
2019-04-11T15:26:54.957Z,7.03
2019-04-11T15:29:08.976Z,7.33
2019-04-11T15:31:39.452Z,7.33
2019-04-11T15:34:08.776Z,7.47
2019-04-11T15:36:17.612Z,7.20
2019-04-11T15:38:43.743Z,7.80
2019-04-11T15:40:54.403Z,6.63
2019-04-11T15:43:32.745Z,7.00
2019-04-11T15:46:01.784Z,6.57
2019-04-11T15:48:43.410Z,6.90
2019-04-11T15:51:18.435Z,7.47
2019-04-11T15:53:34.822Z,8.63
2019-04-11T15:56:01.104Z,7.73
2019-04-11T15:58:12.524Z,7.83
2019-04-11T16:00:36.991Z,7.73
2019-04-11T16:02:59.202Z,7.17
2019-04-11T16:05:24.237Z,8.17
2019-04-11T16:07:50.341Z,6.93
2019-04-11T16:09:57.809Z,8.53
2019-04-11T16:12:18.582Z,7.23
2019-04-11T16:14:37.773Z,7.53
2019-04-11T16:16:52.168Z,9.07
2019-04-11T16:19:17.722Z,7.93
2019-04-11T16:21:33.965Z,7.67
2019-04-11T16:23:58.482Z,7.30
2019-04-11T16:26:09.896Z,7.03
2019-04-11T16:28:55.847Z,8.23
2019-04-11T16:31:03.493Z,8.67
2019-04-11T16:33:28.610Z,7.47
2019-04-11T16:35:58.053Z,7.87
2019-04-11T16:38:07.060Z,7.37
2019-04-11T16:40:53.439Z,6.97
2019-04-11T16:43:05.006Z,7.97
2019-04-11T16:45:40.845Z,7.83
2019-04-11T16:48:02.083Z,6.53
2019-04-11T16:50:10.021Z,7.10
2019-04-11T16:52:17.686Z,7.00
2019-04-11T16:54:25.069Z,7.53
2019-04-11T16:56:32.672Z,6.60
2019-04-11T16:58:40.164Z,6.67
2019-04-11T17:00:52.089Z,7.90
2019-04-11T17:02:56.897Z,8.37
2019-04-11T17:05:05.044Z,8.60
2019-04-11T17:07:31.330Z,7.57
2019-04-11T17:09:44.926Z,8.33
2019-04-11T17:11:52.359Z,7.20
2019-04-11T17:14:00.606Z,7.50
2019-04-11T17:16:12.092Z,7.07
2019-04-11T17:18:19.809Z,6.90
2019-04-11T17:20:27.970Z,7.13
2019-04-11T17:22:35.602Z,7.47
2019-04-11T17:24:43.236Z,7.00
2019-04-11T17:26:52.818Z,6.60
2019-04-11T17:28:59.886Z,9.27
2019-04-11T17:31:07.626Z,7.90
2019-04-11T17:33:15.132Z,7.60
2019-04-11T17:35:22.730Z,7.77
2019-04-11T17:37:30.993Z,7.93
2019-04-11T17:39:39.377Z,7.47
2019-04-11T17:41:46.779Z,7.97
2019-04-11T17:43:54.272Z,7.87
2019-04-11T17:46:01.710Z,8.37
2019-04-11T17:48:10.295Z,7.73
2019-04-11T17:50:18.006Z,7.57
2019-04-11T17:52:25.498Z,7.77
2019-04-11T17:54:32.978Z,7.77
2019-04-11T17:56:40.497Z,7.67
2019-04-11T17:58:48.849Z,7.67
2019-04-11T18:01:00.526Z,7.90
2019-04-11T18:03:11.797Z,8.57
2019-04-11T18:05:17.707Z,7.93
2019-04-11T18:07:26.321Z,8.57
2019-04-11T18:09:34.184Z,7.83
2019-04-11T18:11:42.167Z,7.93
2019-04-11T18:13:49.703Z,8.00
2019-04-11T18:16:00.903Z,8.40
2019-04-11T18:18:07.887Z,7.67
2019-04-11T18:20:16.057Z,8.03
2019-04-11T18:22:23.934Z,8.93
2019-04-11T18:24:31.381Z,9.33
2019-04-11T18:26:39.363Z,9.73
2019-04-11T18:28:47.235Z,9.10
2019-04-11T18:30:54.868Z,8.97
2019-04-11T18:33:04.110Z,9.53
2019-04-11T18:35:12.467Z,9.67
2019-04-11T18:37:20.111Z,10.03
2019-04-11T18:39:27.711Z,9.50
2019-04-11T18:41:35.873Z,10.20
2019-04-11T18:43:46.796Z,9.90
2019-04-11T18:45:53.605Z,9.43
2019-04-11T18:48:01.077Z,11.03
2019-04-11T18:50:11.773Z,10.10
2019-04-11T18:52:20.223Z,9.73
2019-04-11T18:54:28.979Z,10.23
2019-04-11T18:56:38.052Z,12.47
2019-04-11T18:58:45.913Z,11.47
2019-04-11T19:00:53.907Z,9.73
2019-04-11T19:03:01.486Z,10.83
2019-04-11T19:05:10.878Z,10.77
2019-04-11T19:07:27.620Z,11.30
2019-04-11T19:09:29.666Z,11.67
2019-04-11T19:11:37.265Z,12.50
2019-04-11T19:13:47.030Z,12.97
2019-04-11T19:15:54.187Z,12.20
2019-04-11T19:18:06.783Z,11.67
2019-04-11T19:20:11.293Z,11.13
2019-04-11T19:22:20.826Z,10.10
2019-04-11T19:24:35.488Z,10.37
2019-04-11T19:26:37.469Z,11.20
2019-04-11T19:28:46.358Z,10.13
2019-04-11T19:30:56.116Z,11.37
2019-04-11T19:33:03.100Z,11.00
2019-04-11T19:35:10.983Z,11.17
2019-04-11T19:37:18.670Z,10.77
2019-04-11T19:39:30.327Z,11.03
2019-04-11T19:41:38.316Z,11.90
2019-04-11T19:43:48.722Z,11.03
2019-04-11T19:45:55.513Z,10.93
2019-04-11T19:48:03.073Z,10.60
2019-04-11T19:50:11.557Z,10.90
2019-04-11T19:52:19.404Z,11.13
2019-04-11T19:54:26.884Z,10.03
2019-04-11T19:56:39.599Z,12.27
2019-04-11T19:58:47.437Z,13.60
2019-04-11T20:00:55.562Z,12.07
2019-04-11T20:03:03.233Z,14.30
2019-04-11T20:05:12.339Z,17.37
2019-04-11T20:07:20.558Z,14.83
2019-04-11T20:09:29.349Z,15.37
2019-04-11T20:11:36.939Z,15.60
2019-04-11T20:13:44.431Z,15.90
2019-04-11T20:15:51.973Z,15.40
2019-04-11T20:17:59.537Z,17.17
2019-04-11T20:20:07.896Z,17.47
2019-04-11T20:22:15.500Z,18.27
2019-04-11T20:24:23.113Z,18.57
2019-04-11T20:26:30.655Z,18.30
2019-04-11T20:28:38.260Z,17.87
2019-04-11T20:30:46.029Z,19.00
2019-04-11T20:32:53.651Z,17.37
2019-04-11T20:35:01.171Z,17.07
2019-04-11T20:37:12.522Z,18.53
2019-04-11T20:39:18.161Z,17.90
2019-04-11T20:41:25.668Z,18.97
2019-04-11T20:43:33.129Z,18.40
2019-04-11T20:45:41.631Z,19.93
2019-04-11T20:47:49.169Z,18.03
2019-04-11T20:49:56.645Z,17.50
2019-04-11T20:52:04.806Z,23.10
2019-04-11T20:54:12.423Z,23.23
2019-04-11T20:56:24.325Z,21.70
2019-04-11T20:58:28.966Z,19.70
2019-04-11T21:00:49.221Z,19.20
2019-04-11T21:02:46.634Z,19.00
2019-04-11T21:04:54.461Z,18.40
2019-04-11T21:07:02.623Z,18.37
2019-04-11T21:09:12.686Z,17.20
2019-04-11T21:11:20.402Z,18.37
2019-04-11T21:13:27.827Z,19.13
2019-04-11T21:15:35.298Z,17.67
2019-04-11T21:17:42.908Z,17.60
2019-04-11T21:19:50.997Z,18.07
2019-04-11T21:22:00.142Z,16.97
2019-04-11T21:24:07.530Z,16.30
2019-04-11T21:26:15.907Z,17.87
2019-04-11T21:28:23.367Z,17.80
2019-04-11T21:30:31.229Z,19.20
2019-04-11T21:32:38.630Z,18.93
2019-04-11T21:34:46.116Z,16.37
2019-04-11T21:36:53.485Z,16.57
2019-04-11T21:39:03.569Z,16.80
2019-04-11T21:41:10.017Z,15.77
2019-04-11T21:43:17.405Z,17.13
2019-04-11T21:45:24.843Z,16.37
2019-04-11T21:47:32.219Z,14.80
2019-04-11T21:49:39.680Z,17.43
2019-04-11T21:51:47.350Z,18.80
2019-04-11T21:53:54.805Z,19.30
2019-04-11T21:56:02.276Z,15.97
2019-04-11T21:58:09.713Z,16.87
2019-04-11T22:00:27.703Z,15.63
2019-04-11T22:02:35.322Z,30.90
2019-04-11T22:04:42.684Z,41.93
2019-04-11T22:06:50.173Z,52.80
2019-04-11T22:08:57.729Z,60.83
2019-04-11T22:11:05.186Z,36.80
2019-04-11T22:13:12.614Z,29.20
2019-04-11T22:15:19.951Z,31.37
2019-04-11T22:17:27.305Z,27.97
2019-04-11T22:19:34.661Z,22.73
2019-04-11T22:21:45.025Z,18.03
2019-04-11T22:23:51.199Z,17.10
2019-04-11T22:25:58.599Z,15.70
2019-04-11T22:28:05.998Z,15.77
2019-04-11T22:30:15.553Z,18.23
2019-04-11T22:32:23.768Z,18.30
2019-04-11T22:34:44.065Z,17.13
2019-04-11T22:36:51.372Z,16.30
2019-04-11T22:39:01.006Z,15.00
2019-04-11T22:41:07.901Z,15.20
2019-04-11T22:43:24.088Z,13.70
2019-04-11T22:45:24.372Z,13.70
2019-04-11T22:47:31.877Z,12.20
2019-04-11T22:49:40.006Z,14.90
2019-04-11T22:51:47.514Z,13.17
2019-04-11T22:54:00.351Z,13.73
2019-04-11T22:56:04.098Z,13.03
2019-04-11T22:58:13.993Z,12.13
2019-04-11T23:00:20.687Z,11.77
2019-04-11T23:02:47.373Z,13.00
2019-04-11T23:04:54.674Z,12.77
2019-04-11T23:07:02.057Z,12.13
2019-04-11T23:09:09.806Z,13.60
2019-04-11T23:11:17.203Z,13.40
2019-04-11T23:13:24.673Z,13.50
2019-04-11T23:15:32.091Z,13.30
2019-04-11T23:17:41.784Z,13.90
2019-04-11T23:19:48.535Z,12.97
2019-04-11T23:21:55.866Z,14.67
2019-04-11T23:24:11.496Z,14.37
2019-04-11T23:26:12.323Z,13.73
2019-04-11T23:28:19.712Z,14.07
2019-04-11T23:30:27.109Z,13.73
2019-04-11T23:32:34.443Z,13.30
2019-04-11T23:34:41.811Z,14.23
2019-04-11T23:36:51.302Z,13.87
2019-04-11T23:38:58.357Z,14.23
2019-04-11T23:41:05.743Z,13.70
2019-04-11T23:43:15.252Z,13.90
2019-04-11T23:45:25.155Z,14.00
2019-04-11T23:47:32.546Z,13.63
2019-04-11T23:49:39.927Z,12.70
2019-04-11T23:51:47.364Z,11.80
2019-04-11T23:53:59.030Z,13.37
2019-04-11T23:56:03.785Z,12.43
2019-04-11T23:58:11.219Z,11.70
